Time;durP1;ratioP1;P1;durP2;ratioP2;P2;SDS_P1;SDS_P2;PMS_P1;PMS_P2;Temp;Humidity;BMP_temperature;BMP_pressure;BME280_temperature;BME280_humidity;BME280_pressure;Samples;Min_cycle;Max_cycle;Signal;HPM_P1;HPM_P2
2022/06/16 00:01:40;;;;;;;1.88;1.30;;;;;;;13.60;87.37;99918.88;5047159;28;20065;-80
2022/06/16 00:04:06;;;;;;;2.03;1.40;;;;;;;13.58;86.96;99927.47;5047573;28;20483;-81
2022/06/16 00:06:31;;;;;;;1.40;1.30;;;;;;;13.57;87.32;99920.31;5050501;28;20037;-82
2022/06/16 00:08:57;;;;;;;1.20;1.10;;;;;;;13.57;87.14;99914.81;5049339;28;20513;-82
2022/06/16 00:11:23;;;;;;;1.90;1.40;;;;;;;13.60;86.98;99935.41;5046002;28;20071;-76
2022/06/16 00:13:51;;;;;;;1.63;1.27;;;;;;;13.63;87.12;99936.72;5050075;28;20055;-78
2022/06/16 00:16:18;;;;;;;1.30;1.20;;;;;;;13.67;87.22;99932.19;5044614;28;20040;-79
2022/06/16 00:18:44;;;;;;;1.73;1.30;;;;;;;13.67;87.05;99934.94;5026234;28;20127;-75
2022/06/16 00:21:10;;;;;;;1.50;1.20;;;;;;;13.66;86.89;99927.78;5052476;28;20503;-75
2022/06/16 00:23:36;;;;;;;2.22;1.58;;;;;;;13.65;87.06;99932.50;5052382;28;20044;-83
2022/06/16 00:26:02;;;;;;;3.15;1.60;;;;;;;13.68;87.34;99936.56;5024193;28;20045;-85
2022/06/16 00:28:28;;;;;;;2.92;1.35;;;;;;;13.67;87.42;99938.50;5016351;28;20048;-80
2022/06/16 00:31:04;;;;;;;1.55;1.30;;;;;;;13.66;87.20;99936.88;5048959;28;21618;-76
2022/06/16 00:33:31;;;;;;;1.75;1.13;;;;;;;13.66;86.62;99936.88;5015270;28;20120;-79
2022/06/16 00:35:56;;;;;;;1.73;1.40;;;;;;;13.61;86.57;99938.97;5032166;28;20155;-77
2022/06/16 00:38:24;;;;;;;1.40;1.23;;;;;;;13.58;86.15;99937.69;5014219;28;20077;-77
2022/06/16 00:40:51;;;;;;;8.05;1.60;;;;;;;13.53;86.07;99941.34;5032698;28;20037;-77
2022/06/16 00:43:17;;;;;;;1.58;1.48;;;;;;;13.45;86.13;99939.41;5014594;28;20045;-77
2022/06/16 00:46:02;;;;;;;1.38;1.27;;;;;;;13.39;85.92;99942.63;5005630;28;20037;-78
2022/06/16 00:48:43;;;;;;;1.38;1.27;;;;;;;13.31;85.59;99955.19;5042955;28;20037;-78
2022/06/16 00:51:43;;;;;;;1.50;1.25;;;;;;;13.28;85.16;99950.34;5015407;28;20045;-79
2022/06/16 00:54:14;;;;;;;1.45;1.35;;;;;;;13.20;85.03;99962.94;4998603;28;20041;-78
2022/06/16 00:56:41;;;;;;;1.33;1.23;;;;;;;13.13;84.70;99954.25;5015571;28;20046;-77
2022/06/16 00:59:07;;;;;;;1.23;1.10;;;;;;;13.10;84.47;99954.09;5007393;28;20072;-77
2022/06/16 01:01:38;;;;;;;1.25;1.10;;;;;;;13.05;84.71;99957.78;5029833;28;20320;-77
2022/06/16 01:06:51;;;;;;;1.08;1.05;;;;;;;13.03;83.88;99959.25;5020243;28;20041;-77
2022/06/16 01:09:29;;;;;;;1.20;1.10;;;;;;;12.98;83.94;99971.16;5051903;28;20040;-78
2022/06/16 01:15:19;;;;;;;1.20;1.10;;;;;;;12.89;83.67;99973.88;5030618;28;20037;-79
2022/06/16 01:18:07;;;;;;;1.30;1.20;;;;;;;12.83;83.64;99982.56;5017038;28;20408;-80
2022/06/16 01:21:00;;;;;;;1.98;1.30;;;;;;;12.78;84.28;99983.50;5013687;28;20608;-79
2022/06/16 01:24:04;;;;;;;1.08;1.00;;;;;;;12.73;83.68;99988.31;5031780;28;20439;-79
2022/06/16 01:26:33;;;;;;;1.35;1.25;;;;;;;12.71;83.89;99987.81;5014022;28;20499;-78
2022/06/16 01:29:21;;;;;;;1.35;1.25;;;;;;;12.71;83.64;99994.13;5038511;28;20045;-78
2022/06/16 01:32:09;;;;;;;1.13;1.05;;;;;;;12.78;83.48;99991.75;5034335;28;20037;-81
2022/06/16 01:34:35;;;;;;;1.33;1.23;;;;;;;12.73;83.77;99993.81;5046728;28;20040;-79
2022/06/16 01:37:19;;;;;;;1.40;1.10;;;;;;;12.69;83.64;99993.63;5030870;28;20041;-83
2022/06/16 01:39:54;;;;;;;1.40;1.15;;;;;;;12.69;83.53;99993.63;5016914;28;20047;-79
2022/06/16 01:42:41;;;;;;;2.45;1.10;;;;;;;12.74;83.67;100003.72;5028722;28;20503;-78
2022/06/16 01:45:13;;;;;;;1.20;1.10;;;;;;;12.75;83.25;99999.84;5016666;28;20041;-80
2022/06/16 01:47:42;;;;;;;1.30;1.20;;;;;;;12.70;83.05;99998.03;5041659;28;20037;-77
2022/06/16 01:50:15;;;;;;;1.15;1.10;;;;;;;12.71;83.19;100009.84;5031283;28;20044;-76
2022/06/16 01:52:49;;;;;;;1.50;1.25;;;;;;;12.73;83.11;100011.16;5011535;28;20096;-78
2022/06/16 01:55:19;;;;;;;1.45;1.17;;;;;;;12.82;82.96;100001.00;5029722;28;20036;-76
2022/06/16 01:58:03;;;;;;;1.40;1.30;;;;;;;12.92;82.91;100006.28;4999261;28;20045;-80
2022/06/16 02:00:32;;;;;;;1.50;1.40;;;;;;;13.04;82.92;100005.75;5014365;28;20037;-79
2022/06/16 02:03:18;;;;;;;1.15;1.02;;;;;;;13.14;81.88;100005.47;5001508;28;20523;-80
2022/06/16 02:05:54;;;;;;;1.02;1.02;;;;;;;13.25;81.68;100006.88;4997590;28;20049;-75
2022/06/16 02:08:27;;;;;;;1.23;1.13;;;;;;;13.34;81.17;100009.69;5021627;28;20060;-77
2022/06/16 02:10:59;;;;;;;1.88;0.95;;;;;;;13.41;80.63;100012.81;5032758;28;20080;-77
2022/06/16 02:13:30;;;;;;;1.10;1.10;;;;;;;13.49;80.21;100012.03;5015056;28;20123;-75
2022/06/16 02:16:10;;;;;;;1.10;1.10;;;;;;;13.53;79.93;100013.03;4999720;28;20041;-81
2022/06/16 02:18:40;;;;;;;1.00;1.00;;;;;;;13.60;78.98;100017.31;5026903;28;20067;-79
2022/06/16 02:21:17;;;;;;;1.10;1.00;;;;;;;13.68;79.12;100014.56;5029944;28;20037;-77
2022/06/16 02:23:44;;;;;;;1.20;1.10;;;;;;;13.78;78.24;100016.25;4997503;28;20132;-74
2022/06/16 02:26:10;;;;;;;1.58;1.10;;;;;;;13.88;77.86;100021.47;5050192;28;20032;-77
2022/06/16 02:28:47;;;;;;;1.10;1.00;;;;;;;14.03;77.27;100015.53;5047083;28;20159;-76
2022/06/16 02:31:25;;;;;;;1.38;1.08;;;;;;;14.14;76.97;100011.34;5047721;28;20055;-77
2022/06/16 02:34:11;;;;;;;1.25;1.10;;;;;;;14.31;76.33;100020.81;5026929;28;20037;-79
2022/06/16 02:37:14;;;;;;;1.13;1.02;;;;;;;14.49;75.40;100011.47;5012620;28;20068;-80
2022/06/16 02:39:58;;;;;;;1.00;1.00;;;;;;;14.55;74.79;100021.22;5027485;28;20053;-79
2022/06/16 02:42:49;;;;;;;0.95;0.90;;;;;;;14.61;74.44;100019.13;5029165;28;20642;-76
2022/06/16 02:45:21;;;;;;;1.10;1.00;;;;;;;14.71;74.02;100014.06;5038019;28;20048;-79
2022/06/16 02:48:07;;;;;;;2.60;1.10;;;;;;;14.83;73.40;100026.44;5019752;28;20037;-81
2022/06/16 02:51:03;;;;;;;1.05;1.00;;;;;;;14.98;73.06;100023.19;5038556;28;20053;-79
2022/06/16 02:54:10;;;;;;;0.85;0.85;;;;;;;15.09;72.26;100021.72;5029876;28;20041;-79
2022/06/16 02:56:49;;;;;;;1.20;1.10;;;;;;;15.14;72.08;100031.81;5041901;28;20143;-78
2022/06/16 02:59:21;;;;;;;0.80;0.80;;;;;;;15.27;71.71;100030.78;5025586;28;20056;-81
2022/06/16 03:01:47;;;;;;;1.10;1.00;;;;;;;15.34;71.29;100031.13;5016121;28;20464;-88
2022/06/16 03:04:16;;;;;;;1.23;0.90;;;;;;;15.38;70.99;100030.13;5035640;28;20175;-76
2022/06/16 03:06:44;;;;;;;1.08;1.08;;;;;;;15.52;70.41;100029.13;5032095;28;20033;-76
2022/06/16 03:09:11;;;;;;;0.70;0.70;;;;;;;15.63;70.12;100033.22;5033485;28;20131;-76
2022/06/16 03:11:37;;;;;;;0.70;0.70;;;;;;;15.82;69.55;100032.84;5034480;28;20033;-76
2022/06/16 03:14:08;;;;;;;0.98;0.80;;;;;;;15.83;69.12;100021.44;5007744;28;20124;-76
2022/06/16 03:16:38;;;;;;;2.00;1.05;;;;;;;15.92;68.43;100036.03;5054160;28;20037;-76
2022/06/16 03:19:04;;;;;;;1.00;1.00;;;;;;;16.03;68.50;100030.13;5036293;28;20041;-76
2022/06/16 03:21:31;;;;;;;1.70;1.00;;;;;;;16.28;67.64;100027.22;5036129;28;20150;-76
2022/06/16 03:23:57;;;;;;;3.05;1.00;;;;;;;16.36;67.12;100041.38;5035253;28;20064;-76
2022/06/16 03:26:22;;;;;;;3.10;1.05;;;;;;;16.42;66.89;100032.53;5018316;28;20084;-76
2022/06/16 03:28:53;;;;;;;0.75;0.75;;;;;;;16.44;66.82;100041.31;5021861;28;20042;-76
2022/06/16 03:31:18;;;;;;;1.20;1.10;;;;;;;16.58;66.51;100047.41;5051849;28;20102;-76
2022/06/16 03:33:44;;;;;;;2.88;0.93;;;;;;;16.62;66.14;100041.19;5035153;28;20040;-76
2022/06/16 03:36:12;;;;;;;0.90;0.90;;;;;;;16.68;65.72;100042.69;5035683;28;20542;-76
2022/06/16 03:38:42;;;;;;;1.02;0.65;;;;;;;16.74;65.34;100038.56;5019153;28;20094;-76
2022/06/16 03:41:09;;;;;;;1.00;1.00;;;;;;;16.96;64.59;100043.75;5035780;28;20044;-75
2022/06/16 03:43:36;;;;;;;1.45;0.90;;;;;;;16.97;64.60;100042.59;5019105;28;20036;-76
2022/06/16 03:46:18;;;;;;;0.77;0.77;;;;;;;16.95;64.34;100039.34;5032448;28;20095;-75
2022/06/16 03:48:54;;;;;;;1.80;0.90;;;;;;;17.09;63.92;100048.22;5015897;28;20075;-75
2022/06/16 03:51:29;;;;;;;0.82;0.82;;;;;;;17.08;63.56;100045.78;4979788;28;20056;-76
2022/06/16 03:54:46;;;;;;;1.20;1.00;;;;;;;17.09;63.69;100045.44;5017766;28;20041;-76
2022/06/16 03:57:30;;;;;;;1.95;0.77;;;;;;;17.33;62.75;100052.22;5035496;28;20045;-76
2022/06/16 03:59:56;;;;;;;1.13;1.05;;;;;;;17.30;62.84;100044.59;5028963;28;20045;-76
2022/06/16 04:02:32;;;;;;;2.75;1.00;;;;;;;17.43;62.71;100051.81;5034658;28;20068;-76
2022/06/16 04:05:01;;;;;;;0.90;0.90;;;;;;;17.63;61.97;100044.59;4996667;28;20041;-76
2022/06/16 04:07:28;;;;;;;2.22;1.00;;;;;;;17.65;61.68;100043.09;5018555;28;20052;-76
2022/06/16 04:10:05;;;;;;;1.17;0.80;;;;;;;17.74;61.76;100046.63;5020708;28;20072;-76
2022/06/16 04:12:33;;;;;;;1.05;1.05;;;;;;;17.91;60.80;100047.59;5029862;28;20037;-75
2022/06/16 04:15:00;;;;;;;1.75;1.13;;;;;;;17.92;60.55;100043.66;5028645;28;20123;-75
2022/06/16 04:17:26;;;;;;;2.25;1.10;;;;;;;17.89;60.74;100053.50;5034572;28;20098;-75
2022/06/16 04:20:14;;;;;;;1.02;1.00;;;;;;;18.01;60.03;100042.38;5032044;28;20535;-75
2022/06/16 04:22:59;;;;;;;1.50;1.00;;;;;;;17.98;59.64;100045.84;5034654;28;20538;-75
2022/06/16 04:25:30;;;;;;;1.45;1.10;;;;;;;17.90;60.10;100046.78;5023234;28;20046;-75
2022/06/16 04:28:02;;;;;;;1.65;0.93;;;;;;;18.24;59.72;100050.28;5004354;28;20075;-75
2022/06/16 04:30:31;;;;;;;2.03;1.00;;;;;;;18.48;58.66;100049.47;5018350;28;20593;-74
2022/06/16 04:32:58;;;;;;;0.90;0.90;;;;;;;18.52;57.90;100045.63;5013694;28;20037;-75
2022/06/16 04:35:28;;;;;;;0.90;0.90;;;;;;;18.68;58.35;100051.31;5013814;28;20045;-75
2022/06/16 04:37:57;;;;;;;1.60;1.50;;;;;;;18.90;57.43;100061.91;5026053;28;20560;-74
2022/06/16 04:40:23;;;;;;;2.88;1.00;;;;;;;18.71;57.62;100070.06;5013115;28;20053;-74
2022/06/16 04:42:52;;;;;;;1.08;1.00;;;;;;;18.81;57.42;100055.69;5014841;28;20037;-75
2022/06/16 04:45:18;;;;;;;0.95;0.95;;;;;;;19.09;57.07;100064.09;5023815;28;20056;-75
2022/06/16 04:47:44;;;;;;;1.20;1.10;;;;;;;19.09;56.44;100068.81;5016316;28;20037;-75
2022/06/16 04:50:12;;;;;;;1.02;1.02;;;;;;;19.07;56.40;100060.03;5018755;28;20042;-75
2022/06/16 04:52:38;;;;;;;0.90;0.90;;;;;;;19.00;57.01;100065.38;5031595;28;20047;-75
2022/06/16 04:55:04;;;;;;;0.90;0.90;;;;;;;19.24;56.35;100062.50;5030365;28;20403;-74
2022/06/16 04:57:48;;;;;;;0.80;0.80;;;;;;;19.51;55.67;100061.72;5036806;28;20143;-75
2022/06/16 05:00:34;;;;;;;1.67;1.00;;;;;;;19.58;55.19;100061.94;5051199;28;20487;-75
2022/06/16 05:03:20;;;;;;;1.20;1.10;;;;;;;19.41;54.73;100059.44;5049071;28;20487;-75
2022/06/16 05:05:58;;;;;;;1.05;0.95;;;;;;;19.21;55.18;100052.91;5031930;28;20106;-75
2022/06/16 05:08:35;;;;;;;2.25;0.80;;;;;;;19.46;54.99;100059.19;5046264;28;20481;-75
2022/06/16 05:11:24;;;;;;;0.85;0.85;;;;;;;20.05;54.37;100060.38;5036710;28;20466;-74
2022/06/16 05:14:12;;;;;;;0.57;0.57;;;;;;;20.24;53.97;100056.88;5031809;28;20033;-74
2022/06/16 05:16:49;;;;;;;0.90;0.90;;;;;;;20.46;53.51;100061.81;5014217;28;20047;-74
2022/06/16 05:19:31;;;;;;;0.80;0.80;;;;;;;20.40;54.09;100066.03;5019329;28;20041;-74
2022/06/16 05:22:20;;;;;;;0.77;0.70;;;;;;;20.52;53.69;100063.19;5000482;28;20107;-74
2022/06/16 05:25:12;;;;;;;1.88;1.02;;;;;;;20.53;52.31;100064.78;5023932;28;20048;-74
2022/06/16 05:27:57;;;;;;;2.08;1.02;;;;;;;20.21;52.82;100058.41;5049142;28;20041;-74
2022/06/16 05:30:40;;;;;;;0.95;0.95;;;;;;;20.35;52.76;100063.53;5022101;28;20454;-74
2022/06/16 05:33:28;;;;;;;1.00;0.90;;;;;;;20.18;52.38;100073.06;5027122;28;20092;-73
2022/06/16 05:36:05;;;;;;;1.13;0.80;;;;;;;19.92;52.54;100062.44;5023453;28;20041;-74
2022/06/16 05:38:54;;;;;;;1.00;1.00;;;;;;;20.03;52.41;100063.53;5045089;28;20079;-74
2022/06/16 05:41:32;;;;;;;0.98;0.90;;;;;;;20.16;52.44;100067.84;5025679;28;20048;-74
2022/06/16 05:44:30;;;;;;;3.80;1.13;;;;;;;19.94;52.22;100068.44;5011911;28;20029;-75
2022/06/16 05:47:00;;;;;;;2.35;1.10;;;;;;;19.95;52.25;100056.16;5019346;28;20471;-74
2022/06/16 05:49:33;;;;;;;1.45;1.10;;;;;;;19.96;52.62;100062.53;5049006;28;20415;-74
2022/06/16 05:52:06;;;;;;;1.08;0.90;;;;;;;20.03;51.73;100052.41;5032743;28;20040;-75
2022/06/16 05:54:34;;;;;;;1.42;0.90;;;;;;;20.08;52.02;100068.03;5030399;28;20045;-75
2022/06/16 05:56:59;;;;;;;1.08;0.80;;;;;;;20.06;51.74;100071.16;5013537;28;20424;-74
2022/06/16 05:59:27;;;;;;;1.05;0.88;;;;;;;19.91;51.23;100076.72;5015444;28;20053;-75
2022/06/16 06:01:52;;;;;;;1.67;0.85;;;;;;;19.69;51.85;100075.34;5024290;28;20092;-74
2022/06/16 06:04:18;;;;;;;1.00;0.90;;;;;;;19.50;51.95;100079.56;5043884;28;20039;-75
2022/06/16 06:06:44;;;;;;;1.30;0.70;;;;;;;19.23;52.97;100069.25;5030848;28;20458;-74
2022/06/16 06:18:19;;;;;;;1.02;0.68;;;;;;;20.43;51.72;100079.28;5013121;28;20503;-74
2022/06/16 06:20:45;;;;;;;;;;;;;;;20.38;51.11;100077.53;5019482;28;20188;-75
2022/06/16 06:23:11;;;;;;;1.92;0.90;;;;;;;19.89;51.90;100085.44;5023056;28;20393;-75
2022/06/16 06:25:38;;;;;;;1.17;0.90;;;;;;;19.48;53.24;100087.47;5020301;28;20404;-75
2022/06/16 06:28:04;;;;;;;2.00;0.90;;;;;;;19.27;53.68;100092.44;5034002;28;20044;-74
2022/06/16 06:30:31;;;;;;;0.85;0.85;;;;;;;19.07;53.98;100083.06;5003340;28;20037;-74
2022/06/16 06:33:01;;;;;;;1.75;0.90;;;;;;;18.98;54.00;100091.56;5001179;28;20381;-74
2022/06/16 06:35:28;;;;;;;1.60;1.10;;;;;;;18.93;54.64;100089.03;5024151;28;20041;-74
2022/06/16 06:37:56;;;;;;;5.20;1.55;;;;;;;18.94;54.75;100092.63;5024692;28;20037;-73
2022/06/16 06:40:30;;;;;;;3.00;1.00;;;;;;;18.90;54.69;100089.72;5038993;28;20037;-74
2022/06/16 06:42:56;;;;;;;1.95;0.90;;;;;;;19.08;54.54;100095.81;5050177;28;20060;-74
2022/06/16 06:45:23;;;;;;;1.33;0.90;;;;;;;19.38;54.22;100098.28;5049023;28;20051;-74
2022/06/16 06:47:49;;;;;;;0.95;0.95;;;;;;;19.48;53.38;100100.59;5049525;28;20107;-74
2022/06/16 06:50:19;;;;;;;1.00;1.00;;;;;;;19.38;53.74;100104.66;5022141;28;20040;-75
2022/06/16 06:52:45;;;;;;;0.80;0.80;;;;;;;19.25;54.08;100105.84;5044802;28;20068;-74
2022/06/16 06:55:11;;;;;;;2.75;1.13;;;;;;;19.22;54.10;100107.38;5004851;28;20531;-74
2022/06/16 06:57:37;;;;;;;0.93;0.93;;;;;;;19.03;54.18;100103.59;5047972;28;20522;-74
2022/06/16 07:00:04;;;;;;;1.58;1.10;;;;;;;19.08;54.86;100106.13;5044387;28;20038;-74
2022/06/16 07:02:30;;;;;;;1.20;1.10;;;;;;;19.39;53.98;100106.28;5022421;28;20041;-74
2022/06/16 07:04:55;;;;;;;1.20;1.10;;;;;;;19.43;53.94;100118.31;5032443;28;20129;-74
2022/06/16 07:07:23;;;;;;;4.07;1.10;;;;;;;19.34;53.94;100119.63;5013593;28;20122;-74
2022/06/16 07:09:49;;;;;;;1.00;1.00;;;;;;;19.21;53.74;100122.44;5029760;28;20469;-74
2022/06/16 07:12:15;;;;;;;1.10;1.02;;;;;;;18.91;53.85;100130.25;5049822;28;20597;-74
2022/06/16 07:14:47;;;;;;;1.92;1.38;;;;;;;18.63;54.70;100134.94;5021440;28;20029;-74
2022/06/16 07:17:13;;;;;;;2.28;1.15;;;;;;;18.43;55.13;100125.53;5049390;28;20032;-74
2022/06/16 07:19:39;;;;;;;1.20;1.20;;;;;;;18.30;54.88;100138.56;5026204;28;20083;-75
2022/06/16 07:22:06;;;;;;;0.90;0.90;;;;;;;18.08;55.50;100148.16;5012551;28;20045;-75
2022/06/16 07:24:33;;;;;;;2.17;1.23;;;;;;;17.83;56.21;100145.63;5045841;28;20072;-74
2022/06/16 07:26:59;;;;;;;1.27;1.17;;;;;;;17.78;56.10;100150.25;4996692;28;20037;-73
2022/06/16 07:29:24;;;;;;;1.45;1.20;;;;;;;17.64;56.46;100152.47;5024376;28;20048;-73
2022/06/16 07:31:50;;;;;;;2.35;1.13;;;;;;;17.43;56.90;100162.78;5049544;28;20072;-74
2022/06/16 07:34:16;;;;;;;2.65;1.30;;;;;;;17.29;57.47;100160.25;5025692;28;20131;-74
2022/06/16 07:36:41;;;;;;;2.08;1.30;;;;;;;17.33;58.00;100157.63;5027254;28;20562;-73
2022/06/16 07:39:08;;;;;;;1.67;1.02;;;;;;;17.33;57.35;100163.16;5044687;28;20052;-74
2022/06/16 07:41:36;;;;;;;1.00;1.00;;;;;;;17.13;58.04;100167.56;5001461;28;20071;-74
2022/06/16 07:44:12;;;;;;;1.48;1.05;;;;;;;17.21;58.33;100176.97;5031315;28;20049;-74
2022/06/16 07:46:40;;;;;;;1.10;0.93;;;;;;;17.33;58.04;100177.84;5003537;28;20033;-74
2022/06/16 07:49:14;;;;;;;2.83;1.40;;;;;;;17.39;58.02;100172.94;5047281;28;20063;-74
2022/06/16 07:51:41;;;;;;;1.27;1.17;;;;;;;17.42;58.07;100180.56;5032014;28;20032;-75
2022/06/16 07:54:07;;;;;;;1.33;1.20;;;;;;;17.32;58.21;100186.50;5046514;28;20037;-74
2022/06/16 07:56:32;;;;;;;1.85;1.45;;;;;;;17.10;58.21;100188.44;5046799;28;20037;-74
2022/06/16 07:58:58;;;;;;;1.50;1.40;;;;;;;16.95;58.33;100185.44;5040466;28;20450;-75
2022/06/16 08:01:24;;;;;;;1.45;1.20;;;;;;;16.85;58.97;100186.66;5051892;28;20053;-74
2022/06/16 08:03:50;;;;;;;1.50;1.30;;;;;;;17.12;59.12;100188.91;5020335;28;20061;-74
2022/06/16 08:06:18;;;;;;;2.83;1.33;;;;;;;17.48;57.85;100187.53;5045074;28;20033;-74
2022/06/16 08:08:44;;;;;;;;;;;;;;;17.36;57.46;100181.94;5035330;28;20053;-74
2022/06/16 08:12:03;;;;;;;1.88;1.25;;;;;;;17.27;57.26;100189.50;5018974;28;20330;-75
2022/06/16 08:13:58;;;;;;;0.90;0.90;;;;;;;17.23;57.65;100188.53;5037064;28;20463;-75
2022/06/16 08:16:24;;;;;;;2.17;1.20;;;;;;;17.38;57.04;100190.72;5052546;28;20041;-75
2022/06/16 08:18:50;;;;;;;1.77;1.38;;;;;;;17.49;56.67;100189.97;5051387;28;20059;-75
2022/06/16 08:21:16;;;;;;;1.25;1.15;;;;;;;17.45;56.65;100194.56;5050347;28;20139;-75
2022/06/16 08:23:42;;;;;;;1.20;1.10;;;;;;;17.37;57.03;100205.75;5048223;28;20064;-75
2022/06/16 08:26:09;;;;;;;3.35;1.05;;;;;;;17.41;56.94;100201.13;5025838;28;20517;-75
2022/06/16 08:28:34;;;;;;;1.75;1.40;;;;;;;17.48;57.41;100196.66;5005360;28;20462;-75
2022/06/16 08:31:01;;;;;;;1.27;1.10;;;;;;;17.53;57.19;100206.75;5042434;28;20509;-75
2022/06/16 08:33:27;;;;;;;1.88;1.35;;;;;;;17.62;57.30;100201.94;5037244;28;20033;-75
2022/06/16 08:35:53;;;;;;;3.10;1.20;;;;;;;17.62;57.00;100201.13;5033300;28;20063;-75
2022/06/16 08:38:19;;;;;;;1.25;1.15;;;;;;;17.60;57.22;100212.56;5038099;28;20069;-75
2022/06/16 08:40:46;;;;;;;1.70;1.15;;;;;;;17.73;57.18;100202.38;5048950;28;20043;-75
2022/06/16 08:43:25;;;;;;;1.92;1.00;;;;;;;17.84;57.03;100208.31;5044711;28;20570;-74
2022/06/16 08:45:54;;;;;;;1.17;0.98;;;;;;;18.17;56.93;100209.13;5040611;28;20041;-74
2022/06/16 08:48:29;;;;;;;2.45;1.40;;;;;;;18.41;56.11;100216.75;5042917;28;20036;-75
2022/06/16 08:51:06;;;;;;;4.18;1.77;;;;;;;18.60;55.50;100211.44;5024377;28;20122;-75
2022/06/16 08:53:49;;;;;;;4.68;1.25;;;;;;;18.53;55.27;100218.72;5040364;28;20042;-74
2022/06/16 08:56:21;;;;;;;2.80;1.40;;;;;;;18.50;55.11;100219.41;5035537;28;20499;-74
2022/06/16 08:58:58;;;;;;;2.00;1.40;;;;;;;18.47;55.02;100218.13;5045106;28;20142;-74
2022/06/16 09:01:44;;;;;;;2.80;1.20;;;;;;;18.41;55.17;100225.06;5029513;28;20144;-74
2022/06/16 09:04:15;;;;;;;2.63;1.15;;;;;;;18.47;54.92;100226.47;5046632;28;20487;-75
2022/06/16 09:06:46;;;;;;;1.85;1.27;;;;;;;18.71;54.46;100222.13;5019805;28;20183;-74
2022/06/16 09:10:16;;;;;;;2.42;1.55;;;;;;;18.83;54.52;100233.25;5024437;28;20127;-77
2022/06/16 09:12:55;;;;;;;1.92;1.15;;;;;;;19.12;54.48;100237.78;4994748;28;20081;-76
2022/06/16 09:15:33;;;;;;;3.25;1.20;;;;;;;19.26;53.49;100235.44;5020912;28;20114;-75
2022/06/16 09:18:40;;;;;;;1.88;1.10;;;;;;;19.21;52.25;100235.69;5029912;28;20036;-76
2022/06/16 09:21:18;;;;;;;1.20;1.10;;;;;;;19.01;52.47;100251.34;5049727;28;20044;-76
2022/06/16 09:24:05;;;;;;;1.40;1.30;;;;;;;18.82;52.35;100239.97;5050873;28;20059;-76
2022/06/16 09:26:46;;;;;;;1.20;1.10;;;;;;;18.53;53.27;100246.50;5024139;28;20040;-76
2022/06/16 09:29:31;;;;;;;1.17;1.10;;;;;;;18.21;53.67;100248.94;5022724;28;20041;-76
2022/06/16 09:32:01;;;;;;;2.28;1.27;;;;;;;17.98;54.89;100247.72;5028111;28;20037;-77
2022/06/16 09:34:50;;;;;;;1.10;1.00;;;;;;;17.91;55.44;100255.78;5044658;28;20496;-77
2022/06/16 09:37:24;;;;;;;1.63;1.13;;;;;;;17.83;56.03;100254.69;5023331;28;20047;-77
2022/06/16 09:39:58;;;;;;;1.38;1.15;;;;;;;17.74;56.69;100254.78;5031521;28;20533;-77
2022/06/16 09:42:33;;;;;;;1.80;0.70;;;;;;;17.72;56.94;100265.41;5030927;28;20519;-75
2022/06/16 09:45:17;;;;;;;1.40;1.20;;;;;;;17.67;56.84;100260.00;5047116;28;20495;-76
2022/06/16 09:47:45;;;;;;;1.90;1.80;;;;;;;17.81;57.64;100256.19;5041285;28;20037;-76
2022/06/16 09:50:16;;;;;;;4.13;1.33;;;;;;;17.67;57.23;100259.19;5045528;28;20514;-77
2022/06/16 09:53:07;;;;;;;1.88;1.15;;;;;;;17.58;57.10;100262.03;5024233;28;20041;-76
2022/06/16 09:55:36;;;;;;;2.25;1.27;;;;;;;17.53;57.50;100267.81;5037171;28;20044;-76
2022/06/16 09:58:10;;;;;;;2.00;1.30;;;;;;;17.49;57.65;100266.81;5018962;28;20132;-76
2022/06/16 10:00:36;;;;;;;1.77;1.27;;;;;;;17.54;58.67;100269.41;5042464;28;20091;-77
2022/06/16 10:03:15;;;;;;;1.35;1.20;;;;;;;17.51;58.12;100278.38;5021807;28;20045;-77
2022/06/16 10:05:50;;;;;;;1.50;1.33;;;;;;;17.51;57.64;100283.13;5019155;28;20053;-75
2022/06/16 10:08:23;;;;;;;1.30;1.20;;;;;;;17.51;57.83;100274.81;5018204;28;20041;-76
2022/06/16 10:11:02;;;;;;;3.33;1.20;;;;;;;17.52;57.91;100281.97;5023127;28;20115;-77
2022/06/16 10:13:37;;;;;;;2.40;1.30;;;;;;;17.56;57.70;100275.44;5041110;28;20355;-77
2022/06/16 10:16:13;;;;;;;2.15;1.20;;;;;;;17.52;58.23;100284.75;5025762;28;20079;-76
2022/06/16 10:18:40;;;;;;;2.55;1.10;;;;;;;17.50;58.54;100287.88;5018707;28;20044;-76
2022/06/16 10:21:07;;;;;;;1.40;1.20;;;;;;;17.56;58.13;100291.28;5007315;28;20056;-77
2022/06/16 10:23:47;;;;;;;2.05;1.40;;;;;;;17.54;57.01;100293.56;5028751;28;20351;-77
2022/06/16 10:26:13;;;;;;;1.98;1.35;;;;;;;17.54;56.58;100288.84;5028279;28;20091;-77
2022/06/16 10:29:03;;;;;;;1.35;1.15;;;;;;;17.58;56.67;100295.34;5043609;28;20037;-77
2022/06/16 10:31:40;;;;;;;1.25;1.15;;;;;;;17.51;57.43;100292.25;5032408;28;20048;-77
2022/06/16 10:34:20;;;;;;;3.97;2.00;;;;;;;17.55;57.76;100289.66;5044641;28;20060;-77
2022/06/16 10:36:58;;;;;;;5.90;1.10;;;;;;;17.59;57.04;100285.84;5010590;28;20045;-77
2022/06/16 10:39:49;;;;;;;1.52;1.38;;;;;;;17.63;56.34;100281.25;5045983;28;20112;-78
2022/06/16 10:42:26;;;;;;;3.75;1.30;;;;;;;17.74;55.92;100288.06;5030887;28;20480;-77
2022/06/16 10:44:56;;;;;;;1.10;1.00;;;;;;;17.79;55.70;100287.06;5001134;28;20045;-86
2022/06/16 10:47:34;;;;;;;2.72;1.30;;;;;;;17.83;55.73;100293.53;5015862;28;20142;-87
2022/06/16 10:50:02;;;;;;;1.30;1.20;;;;;;;17.79;55.83;100287.06;5046141;28;20044;-83
2022/06/16 10:52:35;;;;;;;1.75;1.25;;;;;;;17.78;55.45;100291.78;5040699;28;20127;-82
2022/06/16 10:55:10;;;;;;;5.70;2.40;;;;;;;17.67;55.35;100292.50;5058542;28;20116;-82
2022/06/16 10:58:06;;;;;;;1.20;1.10;;;;;;;17.52;55.61;100288.34;5038040;28;20045;-82
2022/06/16 11:00:35;;;;;;;2.33;1.30;;;;;;;17.54;55.93;100288.84;5025842;28;20135;-85
2022/06/16 11:03:06;;;;;;;2.17;1.10;;;;;;;17.62;56.65;100295.47;5020483;28;20037;-84
2022/06/16 11:05:36;;;;;;;1.17;1.08;;;;;;;17.78;55.62;100296.53;5041587;28;20040;-82
2022/06/16 11:08:10;;;;;;;2.58;1.45;;;;;;;17.82;55.97;100288.34;5032405;28;20044;-82
2022/06/16 11:10:40;;;;;;;1.60;1.10;;;;;;;17.86;55.33;100289.28;5031174;28;20041;-85
2022/06/16 11:13:13;;;;;;;1.33;1.20;;;;;;;17.91;54.64;100287.13;5025535;28;20083;-82
2022/06/16 11:15:40;;;;;;;2.30;1.15;;;;;;;17.89;54.51;100294.19;5041172;28;20029;-83
2022/06/16 11:18:13;;;;;;;5.93;1.58;;;;;;;17.84;54.62;100297.94;5017814;28;20066;-84
2022/06/16 11:20:41;;;;;;;6.38;1.52;;;;;;;17.75;54.86;100300.78;5053641;28;20036;-85
2022/06/16 11:23:21;;;;;;;2.10;1.15;;;;;;;17.73;54.70;100294.78;5034984;28;20036;-84
2022/06/16 11:25:59;;;;;;;1.60;1.50;;;;;;;17.71;54.49;100287.94;5028730;28;20083;-84
2022/06/16 11:28:26;;;;;;;1.13;1.07;;;;;;;17.65;55.05;100306.69;5031087;28;20040;-85
2022/06/16 11:30:51;;;;;;;2.65;1.20;;;;;;;17.69;54.52;100304.91;5053454;28;20106;-84
2022/06/16 11:36:34;;;;;;;1.50;1.40;;;;;;;17.62;54.64;100310.16;5005210;28;20040;-84
2022/06/16 11:39:25;;;;;;;1.73;1.08;;;;;;;17.49;54.96;100316.75;5031664;28;20047;-88
2022/06/16 11:41:53;;;;;;;2.05;1.20;;;;;;;17.44;56.34;100317.78;5043772;28;20045;-88
2022/06/16 11:44:47;;;;;;;1.50;1.30;;;;;;;17.38;56.79;100326.63;5034003;28;20032;-85
2022/06/16 11:47:50;;;;;;;3.70;1.20;;;;;;;17.37;57.15;100317.50;5049223;28;20404;-86
2022/06/16 11:50:33;;;;;;;1.10;1.10;;;;;;;17.47;57.14;100319.06;5031109;28;20068;-86
2022/06/16 11:53:03;;;;;;;1.95;0.93;;;;;;;17.47;56.96;100332.94;5030203;28;20029;-87
2022/06/16 11:55:40;;;;;;;2.08;1.02;;;;;;;17.53;57.38;100328.84;5022041;28;20030;-87
2022/06/16 11:58:43;;;;;;;4.22;1.25;;;;;;;17.61;57.03;100324.38;5049549;28;20160;-85
2022/06/16 12:01:16;;;;;;;1.38;1.10;;;;;;;17.60;56.91;100331.88;5016374;28;20041;-85
2022/06/16 12:03:56;;;;;;;6.38;1.20;;;;;;;17.56;56.50;100324.56;5048393;28;20454;-85
2022/06/16 12:06:24;;;;;;;2.53;1.13;;;;;;;17.48;56.12;100320.69;5046681;28;20033;-90
2022/06/16 12:08:57;;;;;;;2.95;1.25;;;;;;;17.44;56.00;100333.59;5046771;28;20132;-88
2022/06/16 12:11:40;;;;;;;1.63;1.20;;;;;;;17.44;56.29;100326.09;4999420;28;20041;-88
2022/06/16 12:14:21;;;;;;;1.60;1.30;;;;;;;17.47;56.30;100338.47;5024994;28;20037;-88
2022/06/16 12:17:10;;;;;;;2.38;1.48;;;;;;;17.49;56.21;100325.88;5025597;28;20523;-86